createdAt,value
2017-10-11T00:00:08.207Z,0
2017-10-11T00:00:48.756Z,0
2017-10-11T00:01:29.275Z,0
2017-10-11T00:02:09.808Z,0
2017-10-11T00:02:50.344Z,0
2017-10-11T00:03:30.881Z,0
2017-10-11T00:04:11.415Z,0
2017-10-11T00:04:51.950Z,0
2017-10-11T00:05:32.487Z,0
2017-10-11T00:06:13.023Z,0
2017-10-11T00:06:53.560Z,0
2017-10-11T00:07:34.099Z,0
2017-10-11T00:08:14.634Z,0
2017-10-11T00:08:55.168Z,0
2017-10-11T00:09:35.700Z,0
2017-10-11T00:10:16.236Z,0
2017-10-11T00:10:56.777Z,0
2017-10-11T00:11:37.314Z,0
2017-10-11T00:12:17.848Z,0
2017-10-11T00:12:58.381Z,0
2017-10-11T00:13:38.915Z,0
2017-10-11T00:14:19.462Z,0
2017-10-11T00:14:59.993Z,0
2017-10-11T00:15:40.531Z,0
2017-10-11T00:16:21.049Z,0
2017-10-11T00:17:01.588Z,0
2017-10-11T00:17:42.118Z,0
2017-10-11T00:18:22.655Z,0
2017-10-11T00:19:03.197Z,0
2017-10-11T00:19:43.732Z,0
2017-10-11T00:20:24.269Z,0
2017-10-11T00:21:04.802Z,0
2017-10-11T00:21:45.333Z,0
2017-10-11T00:22:25.870Z,0
2017-10-11T00:23:06.403Z,0
2017-10-11T00:23:46.927Z,0
2017-10-11T00:24:27.457Z,0
2017-10-11T00:25:08.005Z,0
2017-10-11T00:25:48.532Z,0
2017-10-11T00:26:29.067Z,0
2017-10-11T00:27:09.601Z,0
2017-10-11T00:27:50.138Z,0
2017-10-11T00:28:30.676Z,0
2017-10-11T00:29:11.207Z,0
2017-10-11T00:29:51.748Z,0
2017-10-11T00:30:32.272Z,0
2017-10-11T00:31:12.815Z,0
2017-10-11T00:31:53.353Z,0
2017-10-11T00:32:33.892Z,0
2017-10-11T00:33:14.420Z,0
2017-10-11T00:33:54.961Z,0
2017-10-11T00:34:35.489Z,0
2017-10-11T00:35:16.033Z,0
2017-10-11T00:35:56.569Z,0
2017-10-11T00:36:37.106Z,0
2017-10-11T00:37:17.646Z,0
2017-10-11T00:37:58.181Z,0
2017-10-11T00:38:38.726Z,0
2017-10-11T00:39:19.269Z,0
2017-10-11T00:39:59.808Z,0
2017-10-11T00:40:40.335Z,0
2017-10-11T00:41:20.875Z,0
2017-10-11T00:42:01.412Z,0
2017-10-11T00:42:41.944Z,0
2017-10-11T00:43:22.486Z,0
2017-10-11T00:44:03.020Z,0
2017-10-11T00:44:43.553Z,0
2017-10-11T00:45:24.086Z,0
2017-10-11T00:46:04.625Z,0
2017-10-11T00:46:45.165Z,0
2017-10-11T00:47:25.690Z,0
2017-10-11T00:48:06.222Z,0
2017-10-11T00:48:46.759Z,0
2017-10-11T00:49:27.291Z,0
2017-10-11T00:50:07.831Z,0
2017-10-11T00:50:48.369Z,0
2017-10-11T00:51:28.902Z,0
2017-10-11T00:52:09.445Z,0
2017-10-11T00:52:49.978Z,0
2017-10-11T00:53:30.510Z,0
2017-10-11T00:54:11.044Z,0
2017-10-11T00:54:51.592Z,0
2017-10-11T00:55:32.126Z,0
2017-10-11T00:56:12.655Z,0
2017-10-11T00:56:53.196Z,0
2017-10-11T00:57:33.740Z,0
2017-10-11T00:58:14.273Z,0
2017-10-11T00:58:54.812Z,0
2017-10-11T00:59:35.340Z,0
2017-10-11T01:00:15.868Z,0
2017-10-11T01:00:56.405Z,0
2017-10-11T01:01:36.946Z,0
2017-10-11T01:02:17.477Z,0
2017-10-11T01:02:58.012Z,0
2017-10-11T01:03:38.554Z,0
2017-10-11T01:04:19.088Z,0
2017-10-11T01:04:59.617Z,0
2017-10-11T01:05:40.153Z,0
2017-10-11T01:06:20.688Z,0
2017-10-11T01:07:01.221Z,0
2017-10-11T01:07:41.755Z,0
2017-10-11T01:08:22.302Z,0
2017-10-11T01:09:02.838Z,0
2017-10-11T01:09:43.379Z,0
2017-10-11T01:10:23.913Z,0
2017-10-11T01:11:04.444Z,0
2017-10-11T01:11:44.986Z,0
2017-10-11T01:12:25.513Z,0
2017-10-11T01:13:06.053Z,0
2017-10-11T01:13:46.584Z,0
2017-10-11T01:14:27.119Z,0
2017-10-11T01:15:07.654Z,0
2017-10-11T01:15:48.199Z,0
2017-10-11T01:16:28.718Z,0
2017-10-11T01:17:09.261Z,0
2017-10-11T01:17:49.795Z,0
2017-10-11T01:18:30.324Z,0
2017-10-11T01:19:10.864Z,0
2017-10-11T01:19:51.398Z,0
2017-10-11T01:20:31.931Z,0
2017-10-11T01:21:12.465Z,0
2017-10-11T01:21:52.998Z,0
2017-10-11T01:22:33.533Z,0
2017-10-11T01:23:14.067Z,0
2017-10-11T01:23:54.608Z,0
2017-10-11T01:24:35.154Z,0
2017-10-11T01:25:15.674Z,0
2017-10-11T01:25:56.218Z,0
2017-10-11T01:26:36.751Z,0
2017-10-11T01:27:17.286Z,0
2017-10-11T01:27:57.829Z,0
2017-10-11T01:28:38.356Z,0
2017-10-11T01:29:18.883Z,0
2017-10-11T01:29:59.434Z,0
2017-10-11T01:30:39.952Z,0
2017-10-11T01:31:20.490Z,0
2017-10-11T01:32:01.026Z,0
2017-10-11T01:32:41.566Z,0
2017-10-11T01:33:22.097Z,0
2017-10-11T01:34:02.627Z,0
2017-10-11T01:34:43.156Z,0
2017-10-11T01:35:23.700Z,0
2017-10-11T01:36:04.233Z,0
2017-10-11T01:36:44.770Z,0
2017-10-11T01:37:25.333Z,0
2017-10-11T01:38:05.870Z,0
2017-10-11T01:38:46.416Z,0
2017-10-11T01:39:26.942Z,0
2017-10-11T01:40:07.481Z,0
2017-10-11T01:40:48.016Z,0
2017-10-11T01:41:28.551Z,0
2017-10-11T01:42:09.089Z,0
2017-10-11T01:42:49.629Z,0
2017-10-11T01:43:30.169Z,0
2017-10-11T01:44:10.698Z,0
2017-10-11T01:44:51.233Z,0
2017-10-11T01:45:31.766Z,0
2017-10-11T01:46:12.306Z,0
2017-10-11T01:46:52.835Z,0
2017-10-11T01:47:33.372Z,0
2017-10-11T01:48:13.902Z,0
2017-10-11T01:48:54.433Z,0
2017-10-11T01:49:34.966Z,0
2017-10-11T01:50:15.506Z,0
2017-10-11T01:50:56.042Z,0
2017-10-11T01:51:36.579Z,0
2017-10-11T01:52:17.118Z,0
2017-10-11T01:52:57.661Z,0
2017-10-11T01:53:38.194Z,0
2017-10-11T01:54:18.724Z,0
2017-10-11T01:54:59.258Z,0
2017-10-11T01:55:39.797Z,0
2017-10-11T01:56:20.330Z,0
2017-10-11T01:57:00.883Z,0
2017-10-11T01:57:41.430Z,0
2017-10-11T01:58:21.956Z,0
2017-10-11T01:59:02.481Z,0
2017-10-11T01:59:43.023Z,0
2017-10-11T02:00:23.554Z,0
2017-10-11T02:01:04.096Z,0
2017-10-11T02:01:44.626Z,0
2017-10-11T02:02:25.152Z,0
2017-10-11T02:03:05.690Z,0
2017-10-11T02:03:46.223Z,0
2017-10-11T02:04:26.756Z,0
2017-10-11T02:05:07.292Z,0
2017-10-11T02:05:47.839Z,0
2017-10-11T02:06:28.371Z,0
2017-10-11T02:07:08.901Z,0
2017-10-11T02:07:49.440Z,0
2017-10-11T02:08:29.965Z,0
2017-10-11T02:09:10.508Z,0
2017-10-11T02:09:51.047Z,0
2017-10-11T02:10:31.591Z,0
2017-10-11T02:11:12.121Z,0
2017-10-11T02:11:52.656Z,0
2017-10-11T02:12:33.188Z,0
2017-10-11T02:13:13.726Z,0
2017-10-11T02:13:54.268Z,0
2017-10-11T02:14:34.795Z,0
2017-10-11T02:15:15.332Z,0
2017-10-11T02:15:55.863Z,0
2017-10-11T02:16:36.400Z,0
2017-10-11T02:17:16.933Z,0
2017-10-11T02:17:57.467Z,0
2017-10-11T02:18:38.001Z,0
2017-10-11T02:19:18.548Z,0
2017-10-11T02:19:59.075Z,0
2017-10-11T02:20:39.611Z,0
2017-10-11T02:21:20.142Z,0
2017-10-11T02:22:00.675Z,0
2017-10-11T02:22:41.212Z,0
2017-10-11T02:23:21.751Z,0
2017-10-11T02:24:02.283Z,0
2017-10-11T02:24:42.816Z,0
2017-10-11T02:25:23.347Z,0
2017-10-11T02:26:03.882Z,0
2017-10-11T02:26:44.425Z,0
2017-10-11T02:27:24.955Z,0
2017-10-11T02:28:05.491Z,0
2017-10-11T02:28:46.024Z,0
2017-10-11T02:29:26.561Z,0
2017-10-11T02:30:07.095Z,0
2017-10-11T02:30:47.627Z,0
2017-10-11T02:31:28.160Z,0
2017-10-11T02:32:08.696Z,0
2017-10-11T02:32:49.229Z,0
2017-10-11T02:33:29.763Z,0
2017-10-11T02:34:10.299Z,0
2017-10-11T02:34:50.843Z,0
2017-10-11T02:35:31.379Z,0
2017-10-11T02:36:11.912Z,0
2017-10-11T02:36:52.474Z,0
2017-10-11T02:37:32.993Z,0
2017-10-11T02:38:13.527Z,0
2017-10-11T02:38:54.058Z,0
2017-10-11T02:39:34.589Z,0
2017-10-11T02:40:15.133Z,0
2017-10-11T02:40:55.671Z,0
2017-10-11T02:41:36.218Z,0
2017-10-11T02:42:16.752Z,0
2017-10-11T02:42:57.284Z,0
2017-10-11T02:43:37.822Z,0
2017-10-11T02:44:18.358Z,0
2017-10-11T02:44:58.897Z,0
2017-10-11T02:45:39.435Z,0
2017-10-11T02:46:19.968Z,0
2017-10-11T02:47:00.509Z,0
2017-10-11T02:47:41.039Z,0
2017-10-11T02:48:21.575Z,0
2017-10-11T02:49:02.112Z,0
2017-10-11T02:49:42.645Z,0
2017-10-11T02:50:23.183Z,0
2017-10-11T02:51:03.728Z,0
2017-10-11T02:51:44.249Z,0
2017-10-11T02:52:24.787Z,0
2017-10-11T02:53:05.341Z,0
2017-10-11T02:53:45.875Z,0
2017-10-11T02:54:26.404Z,0
2017-10-11T02:55:06.927Z,0
2017-10-11T02:55:47.466Z,0
2017-10-11T02:56:27.993Z,0
2017-10-11T02:57:08.536Z,0
2017-10-11T02:57:49.070Z,0
2017-10-11T02:58:29.611Z,0
2017-10-11T02:59:10.149Z,0
2017-10-11T02:59:50.687Z,0
2017-10-11T03:00:31.240Z,0
2017-10-11T03:01:11.788Z,0
2017-10-11T03:01:52.312Z,0
2017-10-11T03:02:32.841Z,0
2017-10-11T03:03:13.377Z,0
2017-10-11T03:03:53.906Z,0
2017-10-11T03:04:34.452Z,0
2017-10-11T03:05:14.984Z,0
2017-10-11T03:05:55.515Z,0
2017-10-11T03:06:36.043Z,0
2017-10-11T03:07:16.582Z,0
2017-10-11T03:07:57.117Z,0
2017-10-11T03:08:37.654Z,0
2017-10-11T03:09:18.189Z,0
2017-10-11T03:09:58.738Z,0
2017-10-11T03:10:39.267Z,0
2017-10-11T03:11:19.801Z,0
2017-10-11T03:12:00.332Z,0
2017-10-11T03:12:40.876Z,0
2017-10-11T03:13:21.419Z,0
2017-10-11T03:14:01.961Z,0
2017-10-11T03:14:42.500Z,0
2017-10-11T03:15:23.040Z,0
2017-10-11T03:16:03.580Z,0
2017-10-11T03:16:44.114Z,0
2017-10-11T03:17:24.650Z,0
2017-10-11T03:18:05.192Z,0
2017-10-11T03:18:45.716Z,0
2017-10-11T03:19:26.255Z,0
2017-10-11T03:20:06.781Z,0
2017-10-11T03:20:47.313Z,0
2017-10-11T03:21:27.845Z,0
2017-10-11T03:22:08.386Z,0
2017-10-11T03:22:48.916Z,0
2017-10-11T03:23:29.450Z,0
2017-10-11T03:24:09.975Z,0
2017-10-11T03:24:50.513Z,0
2017-10-11T03:25:31.046Z,0
2017-10-11T03:26:11.586Z,0
2017-10-11T03:26:52.124Z,0
2017-10-11T03:27:32.651Z,0
2017-10-11T03:28:13.189Z,0
2017-10-11T03:28:53.720Z,0
2017-10-11T03:29:34.260Z,0
2017-10-11T03:30:14.793Z,0
2017-10-11T03:30:55.327Z,0
2017-10-11T03:31:35.865Z,0
2017-10-11T03:32:16.426Z,0
2017-10-11T03:32:57.034Z,0
2017-10-11T03:33:37.590Z,0
2017-10-11T03:34:18.123Z,0
2017-10-11T03:34:58.657Z,0
2017-10-11T03:35:39.189Z,0
2017-10-11T03:36:19.722Z,0
2017-10-11T03:37:00.262Z,0
2017-10-11T03:37:40.784Z,0
2017-10-11T03:38:21.318Z,0
2017-10-11T03:39:01.850Z,0
2017-10-11T03:39:42.384Z,0
2017-10-11T03:40:22.923Z,0
2017-10-11T03:41:03.457Z,0
2017-10-11T03:41:43.994Z,0
2017-10-11T03:42:24.527Z,0
2017-10-11T03:43:05.060Z,0
2017-10-11T03:43:45.592Z,0
2017-10-11T03:44:26.142Z,0
2017-10-11T03:45:06.689Z,0
2017-10-11T03:45:47.221Z,0
2017-10-11T03:46:27.784Z,0
2017-10-11T03:47:08.298Z,0
2017-10-11T03:47:48.836Z,0
2017-10-11T03:48:29.370Z,0
2017-10-11T03:49:09.904Z,0
2017-10-11T03:49:50.440Z,0
2017-10-11T03:50:31.282Z,0
2017-10-11T03:51:12.241Z,0
2017-10-11T03:51:52.772Z,0
2017-10-11T03:52:33.305Z,0
2017-10-11T03:53:13.853Z,0
2017-10-11T03:53:54.411Z,0
2017-10-11T03:54:35.009Z,0
2017-10-11T03:55:15.545Z,0
2017-10-11T03:55:56.077Z,0
2017-10-11T03:56:38.285Z,0
2017-10-11T03:57:19.214Z,0
2017-10-11T03:57:59.752Z,0
2017-10-11T03:58:40.280Z,0
2017-10-11T03:59:20.816Z,0
2017-10-11T04:00:01.355Z,0
2017-10-11T04:00:41.903Z,0
2017-10-11T04:01:22.432Z,0
2017-10-11T04:02:02.961Z,0
2017-10-11T04:02:43.499Z,0
2017-10-11T04:03:24.093Z,0
2017-10-11T04:04:04.622Z,0
2017-10-11T04:04:45.162Z,0
2017-10-11T04:05:25.689Z,0
2017-10-11T04:06:06.225Z,0
2017-10-11T04:06:46.765Z,0
2017-10-11T04:07:27.305Z,0
2017-10-11T04:08:07.914Z,0
2017-10-11T04:08:48.452Z,0
2017-10-11T04:09:28.985Z,0
2017-10-11T04:10:09.524Z,0
2017-10-11T04:10:50.052Z,0
2017-10-11T04:11:30.572Z,0
2017-10-11T04:12:11.101Z,0
2017-10-11T04:12:51.643Z,0
2017-10-11T04:13:32.177Z,0
2017-10-11T04:14:12.719Z,0
2017-10-11T04:14:53.247Z,0
2017-10-11T04:15:33.780Z,0
2017-10-11T04:16:14.307Z,0
2017-10-11T04:16:54.853Z,0
2017-10-11T04:17:35.385Z,0
2017-10-11T04:18:15.916Z,0
2017-10-11T04:18:56.445Z,0
2017-10-11T04:19:36.972Z,0
2017-10-11T04:20:17.507Z,0
2017-10-11T04:20:58.048Z,0
2017-10-11T04:21:38.608Z,0
2017-10-11T04:22:19.144Z,0
2017-10-11T04:22:59.669Z,0
2017-10-11T04:23:40.204Z,0
2017-10-11T04:24:20.734Z,0
2017-10-11T04:25:01.262Z,0
2017-10-11T04:25:41.834Z,0
2017-10-11T04:26:22.360Z,0
2017-10-11T04:27:02.890Z,0
2017-10-11T04:27:43.455Z,0
2017-10-11T04:28:23.991Z,0
2017-10-11T04:29:04.526Z,0
2017-10-11T04:29:45.059Z,0
2017-10-11T04:30:25.593Z,0
2017-10-11T04:31:06.130Z,0
2017-10-11T04:31:46.664Z,0
2017-10-11T04:32:27.198Z,0
2017-10-11T04:33:07.736Z,0
2017-10-11T04:33:48.278Z,0
2017-10-11T04:34:28.805Z,0
2017-10-11T04:35:09.362Z,0
2017-10-11T04:35:49.909Z,0
2017-10-11T04:36:30.448Z,0
2017-10-11T04:37:10.992Z,0
2017-10-11T04:37:51.598Z,0
2017-10-11T04:38:32.134Z,0
2017-10-11T04:39:12.664Z,0
2017-10-11T04:39:53.198Z,0
2017-10-11T04:40:33.728Z,0
2017-10-11T04:41:14.265Z,0
2017-10-11T04:41:54.804Z,0
2017-10-11T04:42:35.336Z,0
2017-10-11T04:43:15.870Z,0
2017-10-11T04:43:56.409Z,0
2017-10-11T04:44:36.946Z,0
2017-10-11T04:45:17.519Z,0
2017-10-11T04:45:58.110Z,0
2017-10-11T04:46:38.622Z,0
2017-10-11T04:47:19.156Z,0
2017-10-11T04:47:59.688Z,0
2017-10-11T04:48:40.226Z,0
2017-10-11T04:49:20.762Z,0
2017-10-11T04:50:01.319Z,0
2017-10-11T04:50:41.828Z,0
2017-10-11T04:51:22.361Z,0
2017-10-11T04:52:03.057Z,0
2017-10-11T04:52:43.594Z,0
2017-10-11T04:53:24.126Z,0
2017-10-11T04:54:04.649Z,0
2017-10-11T04:54:45.201Z,0
2017-10-11T04:55:25.771Z,0
2017-10-11T04:56:06.307Z,0
2017-10-11T04:56:46.831Z,0
2017-10-11T04:57:27.371Z,0
2017-10-11T04:58:07.907Z,0
2017-10-11T04:58:48.444Z,0
2017-10-11T04:59:28.966Z,0
2017-10-11T05:00:09.504Z,0
2017-10-11T05:00:50.037Z,0
2017-10-11T05:01:30.565Z,0
2017-10-11T05:02:11.111Z,0
2017-10-11T05:02:51.657Z,0
2017-10-11T05:03:32.183Z,0
2017-10-11T05:04:12.714Z,0
2017-10-11T05:04:53.248Z,0
2017-10-11T05:05:33.812Z,0
2017-10-11T05:06:14.355Z,0
2017-10-11T05:06:54.888Z,0
2017-10-11T05:07:35.419Z,0
2017-10-11T05:08:15.947Z,0
2017-10-11T05:08:56.491Z,0
2017-10-11T05:09:37.025Z,0
2017-10-11T05:10:17.564Z,0
2017-10-11T05:10:58.102Z,0
2017-10-11T05:11:38.634Z,0
2017-10-11T05:12:19.172Z,0
2017-10-11T05:12:59.701Z,0
2017-10-11T05:13:40.232Z,0
2017-10-11T05:14:20.757Z,0
2017-10-11T05:15:01.312Z,0
2017-10-11T05:15:41.832Z,0
2017-10-11T05:16:22.355Z,0
2017-10-11T05:17:03.081Z,0
2017-10-11T05:17:43.621Z,0
2017-10-11T05:18:24.171Z,0
2017-10-11T05:19:04.691Z,0
2017-10-11T05:19:45.230Z,0
2017-10-11T05:20:25.759Z,0
2017-10-11T05:21:06.285Z,0
2017-10-11T05:21:46.822Z,0
2017-10-11T05:22:27.362Z,0
2017-10-11T05:23:07.896Z,0
2017-10-11T05:23:48.443Z,0
2017-10-11T05:24:28.980Z,0
2017-10-11T05:25:09.519Z,0
2017-10-11T05:25:50.054Z,0
2017-10-11T05:26:30.593Z,0
2017-10-11T05:27:11.130Z,0
2017-10-11T05:27:51.668Z,0
2017-10-11T05:28:32.200Z,0
2017-10-11T05:29:12.734Z,0
2017-10-11T05:29:53.270Z,0
2017-10-11T05:30:33.806Z,0
2017-10-11T05:31:14.343Z,0
2017-10-11T05:31:54.874Z,0
2017-10-11T05:32:35.408Z,0
2017-10-11T05:33:15.947Z,0
2017-10-11T05:33:56.490Z,0
2017-10-11T05:34:37.015Z,0
2017-10-11T05:35:17.563Z,0
2017-10-11T05:35:58.061Z,0
2017-10-11T05:36:38.600Z,0
2017-10-11T05:37:19.139Z,0
2017-10-11T05:37:59.669Z,0
2017-10-11T05:38:40.238Z,0
2017-10-11T05:39:20.764Z,0
2017-10-11T05:40:01.293Z,0
2017-10-11T05:40:41.827Z,0
2017-10-11T05:41:22.367Z,0
2017-10-11T05:42:02.901Z,0
2017-10-11T05:42:43.442Z,0
2017-10-11T05:43:23.962Z,0
2017-10-11T05:44:04.501Z,0
2017-10-11T05:44:45.024Z,0
2017-10-11T05:45:25.551Z,0
2017-10-11T05:46:06.097Z,0
2017-10-11T05:46:46.628Z,0
2017-10-11T05:47:27.155Z,0
2017-10-11T05:48:07.692Z,0
2017-10-11T05:48:48.228Z,0
2017-10-11T05:49:28.766Z,0
2017-10-11T05:50:09.305Z,0
2017-10-11T05:50:49.841Z,0
2017-10-11T05:51:30.380Z,5
2017-10-11T05:52:10.912Z,5
2017-10-11T05:52:51.452Z,5
2017-10-11T05:53:32.059Z,5
2017-10-11T05:54:12.574Z,5
2017-10-11T05:54:53.122Z,5
2017-10-11T05:55:33.659Z,5
2017-10-11T05:56:14.178Z,5
2017-10-11T05:56:54.721Z,5
2017-10-11T05:57:35.250Z,5
2017-10-11T05:58:15.780Z,5
2017-10-11T05:58:56.315Z,5
2017-10-11T05:59:36.860Z,5
2017-10-11T06:00:17.386Z,10
2017-10-11T06:00:57.930Z,10
2017-10-11T06:01:38.461Z,10
2017-10-11T06:02:18.998Z,10
2017-10-11T06:02:59.527Z,10
2017-10-11T06:03:40.062Z,10
2017-10-11T06:04:20.570Z,10
2017-10-11T06:05:01.117Z,10
2017-10-11T06:05:41.657Z,10
2017-10-11T06:06:22.195Z,15
2017-10-11T06:07:02.722Z,15
2017-10-11T06:07:43.261Z,15
2017-10-11T06:08:23.804Z,15
2017-10-11T06:09:04.338Z,15
2017-10-11T06:09:44.878Z,15
2017-10-11T06:10:25.419Z,15
2017-10-11T06:11:05.951Z,15
2017-10-11T06:11:46.528Z,15
2017-10-11T06:12:27.068Z,20
2017-10-11T06:13:07.595Z,20
2017-10-11T06:13:48.122Z,20
2017-10-11T06:14:28.647Z,20
2017-10-11T06:15:09.178Z,20
2017-10-11T06:15:49.722Z,20
2017-10-11T06:16:30.253Z,20
2017-10-11T06:17:10.795Z,25
2017-10-11T06:17:51.333Z,25
2017-10-11T06:18:31.868Z,25
2017-10-11T06:19:12.410Z,25
2017-10-11T06:19:52.929Z,25
2017-10-11T06:20:33.467Z,25
2017-10-11T06:21:13.998Z,25
2017-10-11T06:21:54.563Z,25
2017-10-11T06:22:35.099Z,30
2017-10-11T06:23:15.636Z,30
2017-10-11T06:23:56.165Z,30
2017-10-11T06:24:36.727Z,30
2017-10-11T06:25:17.272Z,30
2017-10-11T06:25:57.794Z,30
2017-10-11T06:26:38.332Z,30
2017-10-11T06:27:18.853Z,35
2017-10-11T06:27:59.404Z,35
2017-10-11T06:28:39.951Z,35
2017-10-11T06:29:20.482Z,35
2017-10-11T06:30:01.016Z,35
2017-10-11T06:30:41.543Z,35
2017-10-11T06:31:22.071Z,35
2017-10-11T06:32:02.604Z,35
2017-10-11T06:32:43.150Z,35
2017-10-11T06:33:23.671Z,35
2017-10-11T06:34:04.222Z,35
2017-10-11T06:34:44.754Z,35
2017-10-11T06:35:25.282Z,35
2017-10-11T06:36:05.810Z,30
2017-10-11T06:36:46.346Z,30
2017-10-11T06:37:26.868Z,35
2017-10-11T06:38:07.417Z,35
2017-10-11T06:38:47.944Z,35
2017-10-11T06:39:28.481Z,35
2017-10-11T06:40:09.013Z,35
2017-10-11T06:40:49.545Z,40
2017-10-11T06:41:30.075Z,45
2017-10-11T06:42:10.599Z,45
2017-10-11T06:42:51.130Z,45
2017-10-11T06:43:31.660Z,40
2017-10-11T06:44:12.195Z,45
2017-10-11T06:44:52.731Z,45
2017-10-11T06:45:33.257Z,45
2017-10-11T06:46:13.796Z,40
2017-10-11T06:46:54.324Z,40
2017-10-11T06:47:34.866Z,35
2017-10-11T06:48:15.404Z,40
2017-10-11T06:48:55.936Z,40
2017-10-11T06:49:36.472Z,35
2017-10-11T06:50:17.013Z,35
2017-10-11T06:50:57.553Z,35
2017-10-11T06:51:38.079Z,35
2017-10-11T06:52:18.618Z,35
2017-10-11T06:52:59.140Z,35
2017-10-11T06:53:39.685Z,30
2017-10-11T06:54:20.218Z,30
2017-10-11T06:55:00.762Z,30
2017-10-11T06:55:41.298Z,30
2017-10-11T06:56:21.828Z,30
2017-10-11T06:57:02.360Z,35
2017-10-11T06:57:42.901Z,35
2017-10-11T06:58:23.436Z,30
2017-10-11T06:59:03.974Z,30
2017-10-11T06:59:44.527Z,25
2017-10-11T07:00:25.057Z,25
2017-10-11T07:01:05.593Z,25
2017-10-11T07:01:46.128Z,25
2017-10-11T07:02:26.661Z,25
2017-10-11T07:03:07.198Z,30
2017-10-11T07:03:47.736Z,35
2017-10-11T07:04:28.268Z,35
2017-10-11T07:05:08.836Z,40
2017-10-11T07:05:49.376Z,40
2017-10-11T07:06:29.915Z,40
2017-10-11T07:07:10.453Z,35
2017-10-11T07:07:50.993Z,35
2017-10-11T07:08:31.521Z,35
2017-10-11T07:09:12.055Z,35
2017-10-11T07:09:52.590Z,35
2017-10-11T07:10:33.119Z,35
2017-10-11T07:11:13.669Z,35
2017-10-11T07:11:54.205Z,35
2017-10-11T07:12:34.743Z,40
2017-10-11T07:13:15.276Z,40
2017-10-11T07:13:55.812Z,40
2017-10-11T07:14:36.353Z,45
2017-10-11T07:15:16.893Z,45
2017-10-11T07:15:57.431Z,45
2017-10-11T07:16:37.975Z,45
2017-10-11T07:17:18.504Z,50
2017-10-11T07:17:59.042Z,50
2017-10-11T07:18:39.586Z,45
2017-10-11T07:19:20.117Z,50
2017-10-11T07:20:00.658Z,55
2017-10-11T07:20:41.189Z,55
2017-10-11T07:21:21.731Z,60
2017-10-11T07:22:02.260Z,60
2017-10-11T07:22:42.795Z,60
2017-10-11T07:23:23.335Z,55
2017-10-11T07:24:03.861Z,55
2017-10-11T07:24:44.397Z,60
2017-10-11T07:25:24.933Z,60
2017-10-11T07:26:05.488Z,55
2017-10-11T07:26:46.018Z,50
2017-10-11T07:27:26.551Z,55
2017-10-11T07:28:07.082Z,60
2017-10-11T07:28:47.609Z,60
2017-10-11T07:29:28.143Z,60
2017-10-11T07:30:08.669Z,60
2017-10-11T07:30:49.202Z,60
2017-10-11T07:31:29.738Z,60
2017-10-11T07:32:10.271Z,65
2017-10-11T07:32:50.808Z,60
2017-10-11T07:33:31.349Z,60
2017-10-11T07:34:11.892Z,60
2017-10-11T07:34:52.421Z,65
2017-10-11T07:35:32.952Z,60
2017-10-11T07:36:13.486Z,55
2017-10-11T07:36:54.022Z,55
2017-10-11T07:37:34.586Z,50
2017-10-11T07:38:15.139Z,50
2017-10-11T07:38:55.667Z,45
2017-10-11T07:39:36.204Z,45
2017-10-11T07:40:16.746Z,40
2017-10-11T07:40:57.285Z,40
2017-10-11T07:41:37.813Z,45
2017-10-11T07:42:18.349Z,45
2017-10-11T07:42:58.885Z,45
2017-10-11T07:43:39.417Z,50
2017-10-11T07:44:19.950Z,55
2017-10-11T07:45:00.490Z,55
2017-10-11T07:45:41.020Z,55
2017-10-11T07:46:21.556Z,60
2017-10-11T07:47:02.090Z,70
2017-10-11T07:47:42.633Z,85
2017-10-11T07:48:23.170Z,85
2017-10-11T07:49:03.712Z,80
2017-10-11T07:49:44.276Z,70
2017-10-11T07:50:24.778Z,65
2017-10-11T07:51:05.311Z,60
2017-10-11T07:51:45.848Z,60
2017-10-11T07:52:26.385Z,60
2017-10-11T07:53:06.914Z,60
2017-10-11T07:53:47.463Z,60
2017-10-11T07:54:28.007Z,65
2017-10-11T07:55:08.527Z,55
2017-10-11T07:55:49.060Z,55
2017-10-11T07:56:29.599Z,60
2017-10-11T07:57:10.132Z,60
2017-10-11T07:57:50.678Z,60
2017-10-11T07:58:31.211Z,65
2017-10-11T07:59:11.814Z,70
2017-10-11T07:59:52.344Z,70
2017-10-11T08:00:32.880Z,65
2017-10-11T08:01:13.426Z,55
2017-10-11T08:01:53.961Z,50
2017-10-11T08:02:34.496Z,55
2017-10-11T08:03:15.033Z,55
2017-10-11T08:03:55.570Z,55
2017-10-11T08:04:36.108Z,60
2017-10-11T08:05:16.642Z,65
2017-10-11T08:05:57.181Z,75
2017-10-11T08:06:37.716Z,65
2017-10-11T08:07:18.252Z,60
2017-10-11T08:07:58.782Z,55
2017-10-11T08:08:39.318Z,55
2017-10-11T08:09:19.852Z,55
2017-10-11T08:10:00.388Z,55
2017-10-11T08:10:40.925Z,55
2017-10-11T08:11:21.462Z,60
2017-10-11T08:12:01.999Z,65
2017-10-11T08:12:42.535Z,65
2017-10-11T08:13:23.072Z,65
2017-10-11T08:14:03.598Z,70
2017-10-11T08:14:44.131Z,75
2017-10-11T08:15:24.695Z,75
2017-10-11T08:16:05.236Z,70
2017-10-11T08:16:45.775Z,70
2017-10-11T08:17:26.309Z,65
2017-10-11T08:18:06.840Z,60
2017-10-11T08:18:47.377Z,55
2017-10-11T08:19:27.910Z,55
2017-10-11T08:20:08.452Z,55
2017-10-11T08:20:48.981Z,55
2017-10-11T08:21:29.507Z,55
2017-10-11T08:22:10.043Z,55
2017-10-11T08:22:50.579Z,55
2017-10-11T08:23:31.115Z,55
2017-10-11T08:24:11.651Z,55
2017-10-11T08:24:52.210Z,55
2017-10-11T08:25:32.748Z,55
2017-10-11T08:26:13.259Z,65
2017-10-11T08:26:53.789Z,70
2017-10-11T08:27:34.329Z,80
2017-10-11T08:28:14.860Z,80
2017-10-11T08:28:55.402Z,80
2017-10-11T08:29:35.943Z,75
2017-10-11T08:30:16.469Z,70
2017-10-11T08:30:57.004Z,70
2017-10-11T08:31:37.541Z,70
2017-10-11T08:32:18.074Z,65
2017-10-11T08:32:58.610Z,65
2017-10-11T08:33:39.238Z,65
2017-10-11T08:34:19.769Z,65
2017-10-11T08:35:00.303Z,65
2017-10-11T08:35:40.838Z,65
2017-10-11T08:36:21.368Z,70
2017-10-11T08:37:01.914Z,70
2017-10-11T08:37:42.466Z,70
2017-10-11T08:38:23.008Z,70
2017-10-11T08:39:03.545Z,70
2017-10-11T08:39:44.096Z,75
2017-10-11T08:40:24.626Z,75
2017-10-11T08:41:05.162Z,75
2017-10-11T08:41:45.699Z,75
2017-10-11T08:42:26.233Z,70
2017-10-11T08:43:06.776Z,70
2017-10-11T08:43:47.308Z,80
2017-10-11T08:44:27.852Z,90
2017-10-11T08:45:08.388Z,95
2017-10-11T08:45:48.920Z,95
2017-10-11T08:46:29.457Z,85
2017-10-11T08:47:09.993Z,80
2017-10-11T08:47:50.542Z,70
2017-10-11T08:48:31.080Z,75
2017-10-11T08:49:11.615Z,95
2017-10-11T08:49:52.156Z,110
2017-10-11T08:50:32.690Z,145
2017-10-11T08:51:13.220Z,130
2017-10-11T08:51:53.756Z,140
2017-10-11T08:52:34.297Z,140
2017-10-11T08:53:14.847Z,125
2017-10-11T08:53:55.379Z,115
2017-10-11T08:54:35.918Z,105
2017-10-11T08:55:16.470Z,105
2017-10-11T08:55:56.994Z,110
2017-10-11T08:56:37.529Z,105
2017-10-11T08:57:18.053Z,110
2017-10-11T08:57:58.598Z,110
2017-10-11T08:58:39.133Z,110
2017-10-11T08:59:19.673Z,110
2017-10-11T09:00:00.214Z,105
2017-10-11T09:00:40.747Z,105
2017-10-11T09:01:21.280Z,100
2017-10-11T09:02:01.812Z,100
2017-10-11T09:02:42.351Z,100
2017-10-11T09:03:22.887Z,105
2017-10-11T09:04:03.420Z,110
2017-10-11T09:04:43.967Z,105
2017-10-11T09:05:24.504Z,105
2017-10-11T09:06:05.046Z,110
2017-10-11T09:06:45.583Z,110
2017-10-11T09:07:26.124Z,105
2017-10-11T09:08:06.665Z,105
2017-10-11T09:08:47.207Z,105
2017-10-11T09:09:27.740Z,110
2017-10-11T09:10:08.271Z,105
2017-10-11T09:10:48.809Z,105
2017-10-11T09:11:29.334Z,105
2017-10-11T09:12:09.871Z,100
2017-10-11T09:12:50.407Z,100
2017-10-11T09:13:30.963Z,100
2017-10-11T09:14:11.474Z,95
2017-10-11T09:14:52.012Z,95
2017-10-11T09:15:32.547Z,95
2017-10-11T09:16:13.082Z,90
2017-10-11T09:16:53.618Z,85
2017-10-11T09:17:34.150Z,90
2017-10-11T09:18:14.682Z,95
2017-10-11T09:18:55.225Z,95
2017-10-11T09:19:35.756Z,90
2017-10-11T09:20:16.290Z,85
2017-10-11T09:20:56.850Z,85
2017-10-11T09:21:37.366Z,85
2017-10-11T09:22:17.901Z,85
2017-10-11T09:22:58.434Z,85
2017-10-11T09:23:38.977Z,80
2017-10-11T09:24:19.504Z,80
2017-10-11T09:25:00.040Z,80
2017-10-11T09:25:40.572Z,80
2017-10-11T09:26:21.122Z,90
2017-10-11T09:27:01.646Z,90
2017-10-11T09:27:42.194Z,90
2017-10-11T09:28:22.742Z,85
2017-10-11T09:29:03.270Z,80
2017-10-11T09:29:43.802Z,80
2017-10-11T09:30:24.335Z,80
2017-10-11T09:31:04.870Z,80
2017-10-11T09:31:45.397Z,80
2017-10-11T09:32:25.941Z,80
2017-10-11T09:33:06.476Z,80
2017-10-11T09:33:47.009Z,80
2017-10-11T09:34:27.552Z,75
2017-10-11T09:35:08.087Z,75
2017-10-11T09:35:48.627Z,75
2017-10-11T09:36:29.161Z,75
2017-10-11T09:37:09.703Z,75
2017-10-11T09:37:50.246Z,80
2017-10-11T09:38:30.781Z,80
2017-10-11T09:39:11.313Z,80
2017-10-11T09:39:51.856Z,75
2017-10-11T09:40:32.408Z,75
2017-10-11T09:41:12.926Z,85
2017-10-11T09:41:53.481Z,85
2017-10-11T09:42:34.021Z,85
2017-10-11T09:43:14.563Z,85
2017-10-11T09:43:55.100Z,90
2017-10-11T09:44:35.642Z,90
2017-10-11T09:45:16.167Z,90
2017-10-11T09:45:56.699Z,85
2017-10-11T09:46:37.235Z,85
2017-10-11T09:47:17.773Z,90
2017-10-11T09:47:58.350Z,100
2017-10-11T09:48:38.890Z,105
2017-10-11T09:49:19.454Z,95
2017-10-11T09:49:59.994Z,90